Time,TemperatureF,DewpointF,PressureIn,WindDirection,WindDirectionDegrees,WindSpeedMPH,WindSpeedGustMPH,Humidity,HourlyPrecipIn,Conditions,Clouds,dailyrainin,SoftwareType,DateUTC
2013-04-08 00:02:00,64.4,58.1,29.72,North,0,0.0,0.0,80,0.02,,,0.00,WUHU216HW,2013-04-08 05:02:00,
2013-04-08 00:07:00,64.3,58.0,29.72,North,0,0.0,0.0,80,0.02,,,0.00,WUHU216HW,2013-04-08 05:07:00,
2013-04-08 00:12:00,64.1,57.8,29.72,North,0,0.0,0.0,80,0.02,,,0.00,WUHU216HW,2013-04-08 05:12:00,
2013-04-08 00:17:00,64.1,57.8,29.74,North,0,0.0,0.0,80,0.02,,,0.00,WUHU216HW,2013-04-08 05:17:00,
2013-04-08 00:22:00,64.1,57.8,29.74,North,0,0.0,0.0,80,0.02,,,0.00,WUHU216HW,2013-04-08 05:22:00,
2013-04-08 00:27:00,63.9,57.6,29.76,North,0,0.0,0.0,80,0.02,,,0.00,WUHU216HW,2013-04-08 05:27:00,
2013-04-08 00:32:00,63.7,57.1,29.77,North,0,0.0,0.0,79,0.02,,,0.00,WUHU216HW,2013-04-08 05:32:00,
2013-04-08 00:37:00,63.7,57.1,29.79,North,0,0.0,0.0,79,0.02,,,0.00,WUHU216HW,2013-04-08 05:37:00,
2013-04-08 00:42:00,63.7,57.1,29.80,North,0,0.0,0.0,79,0.02,,,0.00,WUHU216HW,2013-04-08 05:42:00,
2013-04-08 00:47:00,63.5,56.9,29.80,North,0,0.0,0.0,79,0.02,,,0.00,WUHU216HW,2013-04-08 05:47:00,
2013-04-08 00:52:00,63.4,56.7,29.80,North,0,0.0,0.0,79,0.02,,,0.00,WUHU216HW,2013-04-08 05:52:00,
2013-04-08 00:57:00,63.4,56.7,29.79,North,0,0.0,0.0,79,0.00,,,0.00,WUHU216HW,2013-04-08 05:57:00,
2013-04-08 01:02:00,63.2,56.9,29.79,North,0,0.0,0.0,80,0.00,,,0.00,WUHU216HW,2013-04-08 06:02:00,
2013-04-08 01:07:00,63.2,56.9,29.78,North,0,0.0,0.0,80,0.00,,,0.00,WUHU216HW,2013-04-08 06:07:00,
2013-04-08 01:12:00,63.0,56.7,29.79,North,0,0.0,0.0,80,0.00,,,0.00,WUHU216HW,2013-04-08 06:12:00,
2013-04-08 01:17:00,63.0,56.7,29.79,North,0,0.0,0.0,80,0.00,,,0.00,WUHU216HW,2013-04-08 06:17:00,
2013-04-08 01:22:00,62.8,56.5,29.79,North,0,0.0,0.0,80,0.00,,,0.00,WUHU216HW,2013-04-08 06:22:00,
2013-04-08 01:27:00,62.8,56.2,29.78,North,0,0.0,0.0,79,0.00,,,0.00,WUHU216HW,2013-04-08 06:27:00,
2013-04-08 01:32:00,62.8,56.5,29.78,North,0,0.0,0.0,80,0.00,,,0.00,WUHU216HW,2013-04-08 06:32:00,
2013-04-08 01:37:00,62.6,56.3,29.79,North,0,0.0,0.0,80,0.00,,,0.00,WUHU216HW,2013-04-08 06:37:00,
2013-04-08 01:42:00,62.6,56.0,29.78,North,0,0.0,0.0,79,0.00,,,0.00,WUHU216HW,2013-04-08 06:42:00,
2013-04-08 01:47:00,62.6,56.0,29.78,North,0,0.0,0.0,79,0.00,,,0.00,WUHU216HW,2013-04-08 06:47:00,
2013-04-08 01:52:00,62.6,55.6,29.78,North,0,0.0,0.0,78,0.00,,,0.00,WUHU216HW,2013-04-08 06:52:00,
2013-04-08 01:57:00,62.6,55.6,29.78,North,0,0.0,0.0,78,0.00,,,0.00,WUHU216HW,2013-04-08 06:57:00,
2013-04-08 02:02:00,62.6,55.6,29.78,North,0,0.0,0.0,78,0.00,,,0.00,WUHU216HW,2013-04-08 07:02:00,
2013-04-08 02:07:00,62.5,55.4,29.78,North,0,0.0,0.0,78,0.00,,,0.00,WUHU216HW,2013-04-08 07:07:00,
2013-04-08 02:12:00,62.5,55.4,29.77,North,0,0.0,0.0,78,0.00,,,0.00,WUHU216HW,2013-04-08 07:12:00,
2013-04-08 02:17:00,62.3,55.3,29.77,North,0,0.0,0.0,78,0.00,,,0.00,WUHU216HW,2013-04-08 07:17:00,
2013-04-08 02:22:00,62.3,54.9,29.77,North,0,0.0,0.0,77,0.00,,,0.00,WUHU216HW,2013-04-08 07:22:00,
2013-04-08 02:27:00,62.5,55.1,29.77,North,0,0.0,0.0,77,0.00,,,0.00,WUHU216HW,2013-04-08 07:27:00,
2013-04-08 02:32:00,62.5,55.1,29.77,North,0,0.0,0.0,77,0.00,,,0.00,WUHU216HW,2013-04-08 07:32:00,
2013-04-08 02:37:00,62.5,55.1,29.77,North,0,0.0,0.0,77,0.00,,,0.00,WUHU216HW,2013-04-08 07:37:00,
2013-04-08 02:42:00,62.3,54.5,29.76,North,0,0.0,0.0,76,0.00,,,0.00,WUHU216HW,2013-04-08 07:42:00,
2013-04-08 02:47:00,62.3,54.5,29.76,North,0,0.0,0.0,76,0.00,,,0.00,WUHU216HW,2013-04-08 07:47:00,
2013-04-08 02:52:00,62.3,54.5,29.75,North,0,0.0,0.0,76,0.00,,,0.00,WUHU216HW,2013-04-08 07:52:00,
2013-04-08 02:57:00,62.1,54.5,29.76,North,0,0.0,0.0,76,0.00,,,0.00,WUHU216HW,2013-04-08 07:57:00,
2013-04-08 03:02:00,62.1,54.5,29.76,North,0,0.0,0.0,76,0.00,,,0.00,WUHU216HW,2013-04-08 08:02:00,
2013-04-08 03:07:00,61.9,54.6,29.75,North,0,0.0,0.0,77,0.00,,,0.00,WUHU216HW,2013-04-08 08:07:00,
2013-04-08 03:12:00,61.9,54.3,29.75,North,0,0.0,0.0,76,0.00,,,0.00,WUHU216HW,2013-04-08 08:12:00,
2013-04-08 03:17:00,61.7,54.1,29.75,North,0,0.0,0.0,76,0.00,,,0.00,WUHU216HW,2013-04-08 08:17:00,
2013-04-08 03:22:00,61.7,54.1,29.75,North,0,0.0,0.0,76,0.00,,,0.00,WUHU216HW,2013-04-08 08:22:00,
2013-04-08 03:27:00,61.6,53.9,29.75,North,0,0.0,0.0,76,0.00,,,0.00,WUHU216HW,2013-04-08 08:27:00,
2013-04-08 03:32:00,61.6,53.9,29.74,North,0,0.0,0.0,76,0.00,,,0.00,WUHU216HW,2013-04-08 08:32:00,
2013-04-08 03:38:00,61.6,54.3,29.74,North,0,0.0,0.0,77,0.00,,,0.00,WUHU216HW,2013-04-08 08:38:00,
2013-04-08 03:43:00,61.6,53.9,29.74,North,0,0.0,0.0,76,0.00,,,0.00,WUHU216HW,2013-04-08 08:43:00,
2013-04-08 03:48:00,61.6,53.9,29.74,North,0,0.0,0.0,76,0.00,,,0.00,WUHU216HW,2013-04-08 08:48:00,
2013-04-08 03:53:00,61.6,53.9,29.75,North,0,0.0,0.0,76,0.00,,,0.00,WUHU216HW,2013-04-08 08:53:00,
2013-04-08 03:58:00,61.6,53.9,29.75,North,0,0.0,0.0,76,0.00,,,0.00,WUHU216HW,2013-04-08 08:58:00,
2013-04-08 04:03:00,61.6,53.9,29.74,North,0,0.0,0.0,76,0.00,,,0.00,WUHU216HW,2013-04-08 09:03:00,
2013-04-08 04:08:00,61.6,53.9,29.75,North,0,0.0,0.0,76,0.00,,,0.00,WUHU216HW,2013-04-08 09:08:00,
2013-04-08 04:13:00,61.6,53.9,29.75,North,0,0.0,0.0,76,0.00,,,0.00,WUHU216HW,2013-04-08 09:13:00,
2013-04-08 04:18:00,61.6,53.9,29.75,North,0,0.0,0.0,76,0.00,,,0.00,WUHU216HW,2013-04-08 09:18:00,
2013-04-08 04:23:00,61.6,53.9,29.75,North,0,0.0,0.0,76,0.00,,,0.00,WUHU216HW,2013-04-08 09:23:00,
2013-04-08 04:28:00,61.4,53.7,29.75,North,0,0.0,0.0,76,0.00,,,0.00,WUHU216HW,2013-04-08 09:28:00,
2013-04-08 04:33:00,61.4,53.7,29.75,North,0,0.0,0.0,76,0.00,,,0.00,WUHU216HW,2013-04-08 09:33:00,
2013-04-08 04:38:00,61.6,53.9,29.75,North,0,0.0,0.0,76,0.00,,,0.00,WUHU216HW,2013-04-08 09:38:00,
2013-04-08 04:43:00,61.4,53.4,29.75,North,0,0.0,0.0,75,0.00,,,0.00,WUHU216HW,2013-04-08 09:43:00,
2013-04-08 04:48:00,61.4,53.7,29.75,North,0,0.0,0.0,76,0.00,,,0.00,WUHU216HW,2013-04-08 09:48:00,
2013-04-08 04:53:00,61.2,53.3,29.75,North,0,0.0,0.0,75,0.00,,,0.00,WUHU216HW,2013-04-08 09:53:00,
2013-04-08 04:58:00,61.4,53.4,29.76,North,0,0.0,0.0,75,0.00,,,0.00,WUHU216HW,2013-04-08 09:58:00,
2013-04-08 05:03:00,61.2,53.3,29.75,North,0,0.0,0.0,75,0.00,,,0.00,WUHU216HW,2013-04-08 10:03:00,
2013-04-08 05:08:00,61.0,53.1,29.75,North,0,0.0,0.0,75,0.00,,,0.00,WUHU216HW,2013-04-08 10:08:00,
2013-04-08 05:13:00,60.8,52.9,29.75,North,0,0.0,0.0,75,0.00,,,0.00,WUHU216HW,2013-04-08 10:13:00,
2013-04-08 05:18:00,60.7,53.1,29.75,North,0,0.0,0.0,76,0.00,,,0.00,WUHU216HW,2013-04-08 10:18:00,
2013-04-08 05:23:00,60.7,53.1,29.73,North,0,0.0,0.0,76,0.00,,,0.00,WUHU216HW,2013-04-08 10:23:00,
2013-04-08 05:28:00,60.5,52.9,29.73,North,0,0.0,0.0,76,0.00,,,0.00,WUHU216HW,2013-04-08 10:28:00,
2013-04-08 05:33:00,60.8,53.6,29.72,North,0,0.0,0.0,77,0.00,,,0.00,WUHU216HW,2013-04-08 10:33:00,
2013-04-08 05:38:00,60.8,53.3,29.72,North,0,0.0,0.0,76,0.00,,,0.00,WUHU216HW,2013-04-08 10:38:00,
2013-04-08 05:43:00,60.8,53.6,29.72,North,0,0.0,0.0,77,0.00,,,0.00,WUHU216HW,2013-04-08 10:43:00,
2013-04-08 05:48:00,61.2,53.7,29.73,North,0,0.0,0.0,76,0.00,,,0.00,WUHU216HW,2013-04-08 10:48:00,
2013-04-08 05:53:00,61.2,53.7,29.73,North,0,0.0,0.0,76,0.00,,,0.00,WUHU216HW,2013-04-08 10:53:00,
2013-04-08 05:58:00,61.0,53.5,29.74,North,0,0.0,0.0,76,0.00,,,0.00,WUHU216HW,2013-04-08 10:58:00,
2013-04-08 06:03:00,61.0,53.5,29.74,North,0,0.0,0.0,76,0.00,,,0.00,WUHU216HW,2013-04-08 11:03:00,
2013-04-08 06:08:00,61.0,53.5,29.74,North,0,0.0,0.0,76,0.00,,,0.00,WUHU216HW,2013-04-08 11:08:00,
2013-04-08 06:13:00,61.0,53.5,29.74,North,0,0.0,0.0,76,0.00,,,0.00,WUHU216HW,2013-04-08 11:13:00,
2013-04-08 06:18:00,61.0,53.5,29.74,North,0,0.0,0.0,76,0.00,,,0.00,WUHU216HW,2013-04-08 11:18:00,
2013-04-08 06:23:00,61.2,53.7,29.74,North,0,0.0,0.0,76,0.00,,,0.00,WUHU216HW,2013-04-08 11:23:00,
2013-04-08 06:28:00,61.2,53.7,29.74,North,0,0.0,0.0,76,0.00,,,0.00,WUHU216HW,2013-04-08 11:28:00,
2013-04-08 06:33:00,61.6,53.9,29.74,North,0,0.0,0.0,76,0.00,,,0.00,WUHU216HW,2013-04-08 11:33:00,
2013-04-08 06:38:00,61.6,53.9,29.75,North,0,0.0,0.0,76,0.00,,,0.00,WUHU216HW,2013-04-08 11:38:00,
2013-04-08 06:43:00,61.6,53.6,29.75,North,0,0.0,0.0,75,0.00,,,0.00,WUHU216HW,2013-04-08 11:43:00,
2013-04-08 06:48:00,61.6,53.9,29.75,North,0,0.0,0.0,76,0.00,,,0.00,WUHU216HW,2013-04-08 11:48:00,
2013-04-08 06:53:00,61.6,53.6,29.76,North,0,0.0,0.0,75,0.00,,,0.00,WUHU216HW,2013-04-08 11:53:00,
2013-04-08 06:58:00,61.6,53.9,29.76,North,0,0.0,0.0,76,0.00,,,0.00,WUHU216HW,2013-04-08 11:58:00,
2013-04-08 07:03:00,61.7,53.7,29.76,North,0,0.0,0.0,75,0.00,,,0.00,WUHU216HW,2013-04-08 12:03:00,
2013-04-08 07:08:00,61.9,53.9,29.76,North,0,0.0,0.0,75,0.00,,,0.00,WUHU216HW,2013-04-08 12:08:00,
2013-04-08 07:13:00,62.1,54.1,29.76,North,0,0.0,0.0,75,0.00,,,0.00,WUHU216HW,2013-04-08 12:13:00,
2013-04-08 07:18:00,62.1,54.1,29.76,North,0,0.0,0.0,75,0.00,,,0.00,WUHU216HW,2013-04-08 12:18:00,
2013-04-08 07:23:00,62.1,54.1,29.76,North,0,0.0,0.0,75,0.00,,,0.00,WUHU216HW,2013-04-08 12:23:00,
2013-04-08 07:28:00,62.3,54.2,29.76,North,0,0.0,0.0,75,0.00,,,0.00,WUHU216HW,2013-04-08 12:28:00,
2013-04-08 07:34:00,62.5,54.4,29.76,North,0,0.0,0.0,75,0.00,,,0.00,WUHU216HW,2013-04-08 12:34:00,
2013-04-08 07:39:00,62.6,54.2,29.76,North,0,0.0,0.0,74,0.00,,,0.00,WUHU216HW,2013-04-08 12:39:00,
2013-04-08 07:44:00,62.8,54.7,29.76,North,0,0.0,0.0,75,0.00,,,0.00,WUHU216HW,2013-04-08 12:44:00,
2013-04-08 07:49:00,62.8,54.7,29.76,North,0,0.0,0.0,75,0.00,,,0.00,WUHU216HW,2013-04-08 12:49:00,
2013-04-08 07:54:00,63.0,54.5,29.76,North,0,0.0,0.0,74,0.00,,,0.00,WUHU216HW,2013-04-08 12:54:00,
2013-04-08 07:59:00,63.4,54.9,29.76,North,0,0.0,0.0,74,0.00,,,0.00,WUHU216HW,2013-04-08 12:59:00,
2013-04-08 08:04:00,63.7,55.3,29.76,North,0,0.0,0.0,74,0.00,,,0.00,WUHU216HW,2013-04-08 13:04:00,
2013-04-08 08:09:00,63.7,55.3,29.77,North,0,0.0,0.0,74,0.00,,,0.00,WUHU216HW,2013-04-08 13:09:00,
2013-04-08 08:14:00,63.9,55.4,29.77,North,0,0.0,0.0,74,0.00,,,0.00,WUHU216HW,2013-04-08 13:14:00,
2013-04-08 08:19:00,64.1,55.6,29.77,North,0,0.0,0.0,74,0.00,,,0.00,WUHU216HW,2013-04-08 13:19:00,
2013-04-08 08:24:00,64.3,55.4,29.77,North,0,0.0,0.0,73,0.00,,,0.00,WUHU216HW,2013-04-08 13:24:00,
2013-04-08 08:29:00,64.4,55.6,29.77,North,0,0.0,0.0,73,0.00,,,0.00,WUHU216HW,2013-04-08 13:29:00,
2013-04-08 08:34:00,64.6,55.8,29.78,North,0,0.0,0.0,73,0.00,,,0.00,WUHU216HW,2013-04-08 13:34:00,
2013-04-08 08:39:00,65.0,56.2,29.78,North,0,0.0,0.0,73,0.00,,,0.00,WUHU216HW,2013-04-08 13:39:00,
2013-04-08 08:45:00,65.2,56.3,29.78,North,0,0.0,0.0,73,0.00,,,0.00,WUHU216HW,2013-04-08 13:45:00,
2013-04-08 08:50:00,65.3,56.1,29.78,North,0,0.0,0.0,72,0.00,,,0.00,WUHU216HW,2013-04-08 13:50:00,
2013-04-08 08:55:00,65.5,56.3,29.78,North,0,0.0,0.0,72,0.00,,,0.00,WUHU216HW,2013-04-08 13:55:00,
2013-04-08 09:00:00,65.5,55.9,29.79,North,0,0.0,0.0,71,0.00,,,0.00,WUHU216HW,2013-04-08 14:00:00,
2013-04-08 09:05:00,65.5,55.9,29.79,North,0,0.0,0.0,71,0.00,,,0.00,WUHU216HW,2013-04-08 14:05:00,
2013-04-08 09:10:00,65.5,55.9,29.79,North,0,0.0,0.0,71,0.00,,,0.00,WUHU216HW,2013-04-08 14:10:00,
2013-04-08 09:15:00,65.7,56.1,29.79,North,0,0.0,0.0,71,0.00,,,0.00,WUHU216HW,2013-04-08 14:15:00,
2013-04-08 09:20:00,65.9,56.3,29.79,North,0,0.0,0.0,71,0.00,,,0.00,WUHU216HW,2013-04-08 14:20:00,
2013-04-08 09:25:00,65.9,56.3,29.79,North,0,0.0,0.0,71,0.00,,,0.00,WUHU216HW,2013-04-08 14:25:00,
2013-04-08 09:30:00,65.9,56.3,29.79,North,0,0.0,0.0,71,0.00,,,0.00,WUHU216HW,2013-04-08 14:30:00,
2013-04-08 09:35:00,66.1,56.3,29.80,North,0,0.0,0.0,71,0.00,,,0.00,WUHU216HW,2013-04-08 14:35:00,
2013-04-08 09:40:00,66.2,56.2,29.80,North,0,0.0,0.0,70,0.00,,,0.00,WUHU216HW,2013-04-08 14:40:00,
2013-04-08 09:45:00,67.0,56.9,29.80,North,0,0.0,0.0,70,0.00,,,0.00,WUHU216HW,2013-04-08 14:45:00,
2013-04-08 09:50:00,67.9,56.9,29.81,North,0,0.0,0.0,68,0.00,,,0.00,WUHU216HW,2013-04-08 14:50:00,
2013-04-08 09:55:00,68.4,57.0,29.81,North,0,0.0,0.0,67,0.00,,,0.00,WUHU216HW,2013-04-08 14:55:00,
2013-04-08 10:00:00,68.8,56.9,29.81,North,0,0.0,0.0,66,0.00,,,0.00,WUHU216HW,2013-04-08 15:00:00,
2013-04-08 10:05:00,69.5,57.6,29.81,North,0,0.0,0.0,66,0.00,,,0.00,WUHU216HW,2013-04-08 15:05:00,
2013-04-08 10:10:00,70.0,57.7,29.81,North,0,0.0,0.0,65,0.00,,,0.00,WUHU216HW,2013-04-08 15:10:00,
2013-04-08 10:15:00,70.7,57.5,29.81,North,0,0.0,0.0,63,0.00,,,0.00,WUHU216HW,2013-04-08 15:15:00,
2013-04-08 10:20:00,71.1,57.9,29.81,North,0,0.0,0.0,63,0.00,,,0.00,WUHU216HW,2013-04-08 15:20:00,
2013-04-08 10:25:00,71.5,58.6,29.82,North,0,0.0,0.0,64,0.00,,,0.00,WUHU216HW,2013-04-08 15:25:00,
2013-04-08 10:30:00,72.0,58.7,29.82,North,0,0.0,0.0,63,0.00,,,0.00,WUHU216HW,2013-04-08 15:30:00,
2013-04-08 10:35:00,72.4,58.6,29.82,North,0,0.0,0.0,62,0.00,,,0.00,WUHU216HW,2013-04-08 15:35:00,
2013-04-08 10:40:00,72.7,58.5,29.82,North,0,0.0,0.0,61,0.00,,,0.00,WUHU216HW,2013-04-08 15:40:00,
2013-04-08 10:45:00,73.1,58.8,29.82,North,0,0.0,0.0,61,0.00,,,0.00,WUHU216HW,2013-04-08 15:45:00,
2013-04-08 10:50:00,73.4,59.1,29.82,North,0,0.0,0.0,61,0.00,,,0.00,WUHU216HW,2013-04-08 15:50:00,
2013-04-08 10:55:00,74.3,59.0,29.82,North,0,0.0,0.0,59,0.00,,,0.00,WUHU216HW,2013-04-08 15:55:00,
2013-04-08 11:00:00,74.2,58.9,29.82,North,0,0.0,0.0,59,0.00,,,0.00,WUHU216HW,2013-04-08 16:00:00,
2013-04-08 11:05:00,74.0,58.7,29.82,North,0,0.0,0.0,59,0.00,,,0.00,WUHU216HW,2013-04-08 16:05:00,
2013-04-08 11:10:00,74.5,59.2,29.82,North,0,0.0,0.0,59,0.00,,,0.00,WUHU216HW,2013-04-08 16:10:00,
2013-04-08 11:16:00,75.1,59.3,29.82,North,0,0.0,0.0,58,0.00,,,0.00,WUHU216HW,2013-04-08 16:16:00,
2013-04-08 11:21:00,75.4,60.1,29.82,North,0,0.0,0.0,59,0.00,,,0.00,WUHU216HW,2013-04-08 16:21:00,
2013-04-08 11:26:00,76.0,59.1,29.82,North,0,0.0,0.0,56,0.00,,,0.00,WUHU216HW,2013-04-08 16:26:00,
2013-04-08 11:31:00,76.0,59.1,29.82,North,0,0.0,0.0,56,0.00,,,0.00,WUHU216HW,2013-04-08 16:31:00,
2013-04-08 11:36:00,76.5,59.6,29.81,North,0,0.0,0.0,56,0.00,,,0.00,WUHU216HW,2013-04-08 16:36:00,
2013-04-08 11:41:00,77.4,60.0,29.81,North,0,0.0,0.0,55,0.00,,,0.00,WUHU216HW,2013-04-08 16:41:00,
2013-04-08 11:46:00,77.9,60.0,29.81,North,0,0.0,0.0,54,0.00,,,0.00,WUHU216HW,2013-04-08 16:46:00,
2013-04-08 11:51:00,78.5,60.9,29.81,North,0,0.0,0.0,55,0.00,,,0.00,WUHU216HW,2013-04-08 16:51:00,
2013-04-08 11:56:00,78.7,61.1,29.81,North,0,0.0,0.0,55,0.00,,,0.00,WUHU216HW,2013-04-08 16:56:00,
2013-04-08 12:01:00,79.6,61.9,29.81,North,0,0.0,0.0,55,0.00,,,0.00,WUHU216HW,2013-04-08 17:01:00,
2013-04-08 12:06:00,80.3,60.5,29.80,North,0,0.0,0.0,51,0.00,,,0.00,WUHU216HW,2013-04-08 17:06:00,
2013-04-08 12:11:00,80.6,61.4,29.81,North,0,0.0,0.0,52,0.00,,,0.00,WUHU216HW,2013-04-08 17:11:00,
2013-04-08 12:16:00,80.8,60.5,29.80,North,0,0.0,0.0,50,0.00,,,0.00,WUHU216HW,2013-04-08 17:16:00,
2013-04-08 12:21:00,80.6,60.9,29.80,North,0,0.0,0.0,51,0.00,,,0.00,WUHU216HW,2013-04-08 17:21:00,
2013-04-08 12:26:00,80.6,60.3,29.80,North,0,0.0,0.0,50,0.00,,,0.00,WUHU216HW,2013-04-08 17:26:00,
2013-04-08 12:32:00,80.5,60.7,29.80,North,0,0.0,0.0,51,0.00,,,0.00,WUHU216HW,2013-04-08 17:32:00,
2013-04-08 12:37:00,80.3,61.0,29.80,North,0,0.0,0.0,52,0.00,,,0.00,WUHU216HW,2013-04-08 17:37:00,
2013-04-08 12:42:00,80.6,61.4,29.80,North,0,0.0,0.0,52,0.00,,,0.00,WUHU216HW,2013-04-08 17:42:00,
2013-04-08 12:47:00,81.0,61.1,29.80,North,0,0.0,0.0,51,0.00,,,0.00,WUHU216HW,2013-04-08 17:47:00,
2013-04-08 12:52:00,81.2,60.2,29.79,North,0,0.0,0.0,49,0.00,,,0.00,WUHU216HW,2013-04-08 17:52:00,
2013-04-08 12:57:00,81.0,60.7,29.79,North,0,0.0,0.0,50,0.00,,,0.00,WUHU216HW,2013-04-08 17:57:00,
2013-04-08 13:02:00,81.2,60.8,29.79,North,0,0.0,0.0,50,0.00,,,0.00,WUHU216HW,2013-04-08 18:02:00,
2013-04-08 13:07:00,81.7,61.3,29.79,North,0,0.0,0.0,50,0.00,,,0.00,WUHU216HW,2013-04-08 18:07:00,
2013-04-08 13:12:00,81.5,60.5,29.79,North,0,0.0,0.0,49,0.00,,,0.00,WUHU216HW,2013-04-08 18:12:00,
2013-04-08 13:17:00,80.6,60.3,29.79,North,0,0.0,0.0,50,0.00,,,0.00,WUHU216HW,2013-04-08 18:17:00,
2013-04-08 13:22:00,80.1,60.3,29.79,North,0,0.0,0.0,51,0.00,,,0.00,WUHU216HW,2013-04-08 18:22:00,
2013-04-08 13:27:00,79.7,60.0,29.79,North,0,0.0,0.0,51,0.00,,,0.00,WUHU216HW,2013-04-08 18:27:00,
2013-04-08 13:32:00,80.1,60.3,29.79,North,0,0.0,0.0,51,0.00,,,0.00,WUHU216HW,2013-04-08 18:32:00,
2013-04-08 13:37:00,80.1,59.9,29.78,North,0,0.0,0.0,50,0.00,,,0.00,WUHU216HW,2013-04-08 18:37:00,
2013-04-08 13:42:00,80.5,60.7,29.79,North,0,0.0,0.0,51,0.00,,,0.00,WUHU216HW,2013-04-08 18:42:00,
2013-04-08 13:47:00,80.6,60.9,29.79,North,0,0.0,0.0,51,0.00,,,0.00,WUHU216HW,2013-04-08 18:47:00,
2013-04-08 13:52:00,80.5,60.1,29.78,North,0,0.0,0.0,50,0.00,,,0.00,WUHU216HW,2013-04-08 18:52:00,
2013-04-08 13:57:00,80.3,60.5,29.78,North,0,0.0,0.0,51,0.00,,,0.00,WUHU216HW,2013-04-08 18:57:00,
2013-04-08 14:02:00,80.3,60.5,29.79,North,0,0.0,0.0,51,0.00,,,0.00,WUHU216HW,2013-04-08 19:02:00,
2013-04-08 14:07:00,80.1,60.3,29.79,North,0,0.0,0.0,51,0.00,,,0.00,WUHU216HW,2013-04-08 19:07:00,
2013-04-08 14:12:00,80.3,60.5,29.79,North,0,0.0,0.0,51,0.00,,,0.00,WUHU216HW,2013-04-08 19:12:00,
2013-04-08 14:17:00,80.6,60.3,29.79,North,0,0.0,0.0,50,0.00,,,0.00,WUHU216HW,2013-04-08 19:17:00,
2013-04-08 14:22:00,80.6,60.3,29.79,North,0,0.0,0.0,50,0.00,,,0.00,WUHU216HW,2013-04-08 19:22:00,
2013-04-08 14:27:00,80.8,61.0,29.79,North,0,0.0,0.0,51,0.00,,,0.00,WUHU216HW,2013-04-08 19:27:00,
2013-04-08 14:32:00,80.8,60.5,29.79,North,0,0.0,0.0,50,0.00,,,0.00,WUHU216HW,2013-04-08 19:32:00,
2013-04-08 14:37:00,80.6,59.7,29.79,North,0,0.0,0.0,49,0.00,,,0.00,WUHU216HW,2013-04-08 19:37:00,
2013-04-08 14:42:00,80.5,59.5,29.79,North,0,0.0,0.0,49,0.00,,,0.00,WUHU216HW,2013-04-08 19:42:00,
2013-04-08 14:47:00,80.3,59.4,29.79,North,0,0.0,0.0,49,0.00,,,0.00,WUHU216HW,2013-04-08 19:47:00,
2013-04-08 14:52:00,80.5,59.5,29.79,North,0,0.0,0.0,49,0.00,,,0.00,WUHU216HW,2013-04-08 19:52:00,
2013-04-08 14:57:00,80.8,59.2,29.78,North,0,0.0,0.0,48,0.00,,,0.00,WUHU216HW,2013-04-08 19:57:00,
2013-04-08 15:02:00,80.8,59.2,29.78,North,0,0.0,0.0,48,0.00,,,0.00,WUHU216HW,2013-04-08 20:02:00,
2013-04-08 15:07:00,80.3,58.8,29.78,North,0,0.0,0.0,48,0.00,,,0.00,WUHU216HW,2013-04-08 20:07:00,
2013-04-08 15:12:00,79.7,58.9,29.78,North,0,0.0,0.0,49,0.00,,,0.00,WUHU216HW,2013-04-08 20:12:00,
2013-04-08 15:17:00,79.6,59.3,29.78,North,0,0.0,0.0,50,0.00,,,0.00,WUHU216HW,2013-04-08 20:17:00,
2013-04-08 15:22:00,79.9,59.7,29.78,North,0,0.0,0.0,50,0.00,,,0.00,WUHU216HW,2013-04-08 20:22:00,
2013-04-08 15:27:00,80.5,59.5,29.77,North,0,0.0,0.0,49,0.00,,,0.00,WUHU216HW,2013-04-08 20:27:00,
2013-04-08 15:32:00,80.6,59.7,29.77,North,0,0.0,0.0,49,0.00,,,0.00,WUHU216HW,2013-04-08 20:32:00,
2013-04-08 15:37:00,81.0,60.0,29.77,North,0,0.0,0.0,49,0.00,,,0.00,WUHU216HW,2013-04-08 20:37:00,
2013-04-08 15:42:00,81.4,59.8,29.77,North,0,0.0,0.0,48,0.00,,,0.00,WUHU216HW,2013-04-08 20:42:00,
2013-04-08 15:47:00,81.5,59.3,29.77,North,0,0.0,0.0,47,0.00,,,0.00,WUHU216HW,2013-04-08 20:47:00,
2013-04-08 15:52:00,81.5,59.3,29.77,North,0,0.0,0.0,47,0.00,,,0.00,WUHU216HW,2013-04-08 20:52:00,
2013-04-08 15:57:00,81.2,59.0,29.78,North,0,0.0,0.0,47,0.00,,,0.00,WUHU216HW,2013-04-08 20:57:00,
2013-04-08 16:02:00,81.0,58.8,29.78,North,0,0.0,0.0,47,0.00,,,0.00,WUHU216HW,2013-04-08 21:02:00,
2013-04-08 16:07:00,81.0,58.8,29.78,North,0,0.0,0.0,47,0.00,,,0.00,WUHU216HW,2013-04-08 21:07:00,
2013-04-08 16:12:00,80.6,59.0,29.78,North,0,0.0,0.0,48,0.00,,,0.00,WUHU216HW,2013-04-08 21:12:00,
2013-04-08 16:17:00,80.6,59.0,29.78,North,0,0.0,0.0,48,0.00,,,0.00,WUHU216HW,2013-04-08 21:17:00,
2013-04-08 16:22:00,81.0,58.8,29.78,North,0,0.0,0.0,47,0.00,,,0.00,WUHU216HW,2013-04-08 21:22:00,
2013-04-08 16:27:00,81.4,58.5,29.78,North,0,0.0,0.0,46,0.00,,,0.00,WUHU216HW,2013-04-08 21:27:00,
2013-04-08 16:32:00,81.2,58.3,29.78,North,0,0.0,0.0,46,0.00,,,0.00,WUHU216HW,2013-04-08 21:32:00,
2013-04-08 16:37:00,81.0,58.1,29.77,North,0,0.0,0.0,46,0.00,,,0.00,WUHU216HW,2013-04-08 21:37:00,
2013-04-08 16:42:00,81.2,57.7,29.78,North,0,0.0,0.0,45,0.00,,,0.00,WUHU216HW,2013-04-08 21:42:00,
2013-04-08 16:47:00,81.4,58.5,29.78,North,0,0.0,0.0,46,0.00,,,0.00,WUHU216HW,2013-04-08 21:47:00,
2013-04-08 16:52:00,81.4,57.9,29.78,North,0,0.0,0.0,45,0.00,,,0.00,WUHU216HW,2013-04-08 21:52:00,
2013-04-08 16:57:00,81.4,57.9,29.78,North,0,0.0,0.0,45,0.00,,,0.00,WUHU216HW,2013-04-08 21:57:00,
2013-04-08 17:02:00,81.2,57.7,29.79,North,0,0.0,0.0,45,0.00,,,0.00,WUHU216HW,2013-04-08 22:02:00,
2013-04-08 17:07:00,81.2,57.2,29.79,North,0,0.0,0.0,44,0.00,,,0.00,WUHU216HW,2013-04-08 22:07:00,
2013-04-08 17:12:00,81.0,57.6,29.79,North,0,0.0,0.0,45,0.00,,,0.00,WUHU216HW,2013-04-08 22:12:00,
2013-04-08 17:17:00,81.2,57.7,29.79,North,0,0.0,0.0,45,0.00,,,0.00,WUHU216HW,2013-04-08 22:17:00,
2013-04-08 17:22:00,81.4,58.5,29.79,North,0,0.0,0.0,46,0.00,,,0.00,WUHU216HW,2013-04-08 22:22:00,
2013-04-08 17:27:00,81.2,57.7,29.79,North,0,0.0,0.0,45,0.00,,,0.00,WUHU216HW,2013-04-08 22:27:00,
2013-04-08 17:32:00,81.0,58.1,29.79,North,0,0.0,0.0,46,0.00,,,0.00,WUHU216HW,2013-04-08 22:32:00,
2013-04-08 17:37:00,80.6,57.9,29.79,North,0,0.0,0.0,46,0.00,,,0.00,WUHU216HW,2013-04-08 22:37:00,
2013-04-08 17:42:00,80.5,57.7,29.79,North,0,0.0,0.0,46,0.00,,,0.00,WUHU216HW,2013-04-08 22:42:00,
2013-04-08 17:47:00,80.1,58.0,29.79,North,0,0.0,0.0,47,0.00,,,0.00,WUHU216HW,2013-04-08 22:47:00,
2013-04-08 17:52:00,79.6,57.5,29.79,North,0,0.0,0.0,47,0.00,,,0.00,WUHU216HW,2013-04-08 22:52:00,
2013-04-08 17:57:00,79.4,57.3,29.79,North,0,0.0,0.0,47,0.00,,,0.00,WUHU216HW,2013-04-08 22:57:00,
2013-04-08 18:02:00,78.8,57.4,29.79,North,0,0.0,0.0,48,0.00,,,0.00,WUHU216HW,2013-04-08 23:02:00,
2013-04-08 18:07:00,78.5,57.2,29.79,North,0,0.0,0.0,48,0.00,,,0.00,WUHU216HW,2013-04-08 23:07:00,
2013-04-08 18:12:00,78.1,57.4,29.79,North,0,0.0,0.0,49,0.00,,,0.00,WUHU216HW,2013-04-08 23:12:00,
2013-04-08 18:17:00,78.1,58.1,29.79,North,0,0.0,0.0,50,0.00,,,0.00,WUHU216HW,2013-04-08 23:17:00,
2013-04-08 18:22:00,78.1,58.1,29.79,North,0,0.0,0.0,50,0.00,,,0.00,WUHU216HW,2013-04-08 23:22:00,
2013-04-08 18:27:00,78.1,58.1,29.79,North,0,0.0,0.0,50,0.00,,,0.00,WUHU216HW,2013-04-08 23:27:00,
2013-04-08 18:32:00,77.8,57.7,29.80,North,0,0.0,0.0,50,0.00,,,0.00,WUHU216HW,2013-04-08 23:32:00,
2013-04-08 18:37:00,77.6,57.5,29.80,North,0,0.0,0.0,50,0.00,,,0.00,WUHU216HW,2013-04-08 23:37:00,
2013-04-08 18:42:00,77.2,57.7,29.80,North,0,0.0,0.0,51,0.00,,,0.00,WUHU216HW,2013-04-08 23:42:00,
2013-04-08 18:47:00,77.0,57.6,29.81,North,0,0.0,0.0,51,0.00,,,0.00,WUHU216HW,2013-04-08 23:47:00,
2013-04-08 18:52:00,76.7,57.2,29.81,North,0,0.0,0.0,51,0.00,,,0.00,WUHU216HW,2013-04-08 23:52:00,
2013-04-08 18:58:00,76.5,57.6,29.81,North,0,0.0,0.0,52,0.00,,,0.00,WUHU216HW,2013-04-08 23:58:00,
2013-04-08 19:03:00,76.1,57.2,29.81,North,0,0.0,0.0,52,0.00,,,0.00,WUHU216HW,2013-04-09 00:03:00,
2013-04-08 19:08:00,75.8,57.4,29.81,North,0,0.0,0.0,53,0.00,,,0.00,WUHU216HW,2013-04-09 00:08:00,
2013-04-08 19:13:00,75.4,57.2,29.81,North,0,0.0,0.0,53,0.00,,,0.00,WUHU216HW,2013-04-09 00:13:00,
2013-04-08 19:18:00,75.2,57.0,29.81,North,0,0.0,0.0,53,0.00,,,0.00,WUHU216HW,2013-04-09 00:18:00,
2013-04-08 19:23:00,74.9,57.1,29.81,North,0,0.0,0.0,54,0.00,,,0.00,WUHU216HW,2013-04-09 00:23:00,
2013-04-08 19:28:00,74.5,56.7,29.81,North,0,0.0,0.0,54,0.00,,,0.00,WUHU216HW,2013-04-09 00:28:00,
2013-04-08 19:33:00,74.3,56.5,29.81,North,0,0.0,0.0,54,0.00,,,0.00,WUHU216HW,2013-04-09 00:33:00,
2013-04-08 19:38:00,74.0,56.7,29.81,North,0,0.0,0.0,55,0.00,,,0.00,WUHU216HW,2013-04-09 00:38:00,
2013-04-08 19:43:00,73.8,56.5,29.81,North,0,0.0,0.0,55,0.00,,,0.00,WUHU216HW,2013-04-09 00:43:00,
2013-04-08 19:48:00,73.4,56.2,29.82,North,0,0.0,0.0,55,0.00,,,0.00,WUHU216HW,2013-04-09 00:48:00,
2013-04-08 19:53:00,73.1,56.3,29.82,North,0,0.0,0.0,56,0.00,,,0.00,WUHU216HW,2013-04-09 00:53:00,
2013-04-08 19:58:00,72.7,56.0,29.82,North,0,0.0,0.0,56,0.00,,,0.00,WUHU216HW,2013-04-09 00:58:00,
2013-04-08 20:03:00,72.4,56.2,29.82,North,0,0.0,0.0,57,0.00,,,0.00,WUHU216HW,2013-04-09 01:03:00,
2013-04-08 20:08:00,72.2,56.1,29.82,North,0,0.0,0.0,57,0.00,,,0.00,WUHU216HW,2013-04-09 01:08:00,
2013-04-08 20:13:00,71.6,55.5,29.83,North,0,0.0,0.0,57,0.00,,,0.00,WUHU216HW,2013-04-09 01:13:00,
2013-04-08 20:18:00,71.5,55.9,29.83,North,0,0.0,0.0,58,0.00,,,0.00,WUHU216HW,2013-04-09 01:18:00,
2013-04-08 20:23:00,71.5,56.4,29.83,North,0,0.0,0.0,59,0.00,,,0.00,WUHU216HW,2013-04-09 01:23:00,
2013-04-08 20:28:00,71.3,56.3,29.83,North,0,0.0,0.0,59,0.00,,,0.00,WUHU216HW,2013-04-09 01:28:00,
2013-04-08 20:33:00,70.9,56.4,29.83,North,0,0.0,0.0,60,0.00,,,0.00,WUHU216HW,2013-04-09 01:33:00,
2013-04-08 20:38:00,70.9,55.9,29.84,North,0,0.0,0.0,59,0.00,,,0.00,WUHU216HW,2013-04-09 01:38:00,
2013-04-08 20:43:00,70.9,55.9,29.84,North,0,0.0,0.0,59,0.00,,,0.00,WUHU216HW,2013-04-09 01:43:00,
2013-04-08 20:48:00,70.9,55.9,29.84,North,0,0.0,0.0,59,0.00,,,0.00,WUHU216HW,2013-04-09 01:48:00,
2013-04-08 20:53:00,70.9,55.9,29.84,North,0,0.0,0.0,59,0.00,,,0.00,WUHU216HW,2013-04-09 01:53:00,
2013-04-08 20:58:00,70.9,55.9,29.85,North,0,0.0,0.0,59,0.00,,,0.00,WUHU216HW,2013-04-09 01:58:00,
2013-04-08 21:03:00,70.9,56.4,29.84,North,0,0.0,0.0,60,0.00,,,0.00,WUHU216HW,2013-04-09 02:03:00,
2013-04-08 21:08:00,70.9,56.9,29.85,North,0,0.0,0.0,61,0.00,,,0.00,WUHU216HW,2013-04-09 02:08:00,
2013-04-08 21:13:00,71.1,57.0,29.85,North,0,0.0,0.0,61,0.00,,,0.00,WUHU216HW,2013-04-09 02:13:00,
2013-04-08 21:18:00,71.1,57.0,29.85,North,0,0.0,0.0,61,0.00,,,0.00,WUHU216HW,2013-04-09 02:18:00,
2013-04-08 21:23:00,71.1,57.0,29.85,North,0,0.0,0.0,61,0.00,,,0.00,WUHU216HW,2013-04-09 02:23:00,
2013-04-08 21:28:00,70.9,56.9,29.86,North,0,0.0,0.0,61,0.00,,,0.00,WUHU216HW,2013-04-09 02:28:00,
2013-04-08 21:33:00,70.9,57.2,29.86,North,0,0.0,0.0,62,0.00,,,0.00,WUHU216HW,2013-04-09 02:33:00,
2013-04-08 21:38:00,70.7,56.7,29.86,North,0,0.0,0.0,61,0.00,,,0.00,WUHU216HW,2013-04-09 02:38:00,
2013-04-08 21:43:00,70.6,57.0,29.86,North,0,0.0,0.0,62,0.00,,,0.00,WUHU216HW,2013-04-09 02:43:00,
2013-04-08 21:48:00,70.6,57.0,29.86,North,0,0.0,0.0,62,0.00,,,0.00,WUHU216HW,2013-04-09 02:48:00,
2013-04-08 21:53:00,70.6,56.5,29.87,North,0,0.0,0.0,61,0.00,,,0.00,WUHU216HW,2013-04-09 02:53:00,
2013-04-08 21:58:00,70.6,57.0,29.87,North,0,0.0,0.0,62,0.00,,,0.00,WUHU216HW,2013-04-09 02:58:00,
2013-04-08 22:03:00,70.2,56.6,29.87,North,0,0.0,0.0,62,0.00,,,0.00,WUHU216HW,2013-04-09 03:03:00,
2013-04-08 22:08:00,70.2,57.1,29.87,North,0,0.0,0.0,63,0.00,,,0.00,WUHU216HW,2013-04-09 03:08:00,
2013-04-08 22:13:00,70.2,56.6,29.86,North,0,0.0,0.0,62,0.00,,,0.00,WUHU216HW,2013-04-09 03:13:00,
2013-04-08 22:18:00,70.2,56.6,29.87,North,0,0.0,0.0,62,0.00,,,0.00,WUHU216HW,2013-04-09 03:18:00,
2013-04-08 22:23:00,70.0,56.9,29.87,North,0,0.0,0.0,63,0.00,,,0.00,WUHU216HW,2013-04-09 03:23:00,
2013-04-08 22:28:00,70.0,56.9,29.87,North,0,0.0,0.0,63,0.00,,,0.00,WUHU216HW,2013-04-09 03:28:00,
2013-04-08 22:33:00,70.0,57.2,29.87,North,0,0.0,0.0,64,0.00,,,0.00,WUHU216HW,2013-04-09 03:33:00,
2013-04-08 22:38:00,70.0,56.9,29.87,North,0,0.0,0.0,63,0.00,,,0.00,WUHU216HW,2013-04-09 03:38:00,
2013-04-08 22:43:00,69.8,57.1,29.87,North,0,0.0,0.0,64,0.00,,,0.00,WUHU216HW,2013-04-09 03:43:00,
2013-04-08 22:48:00,69.7,56.9,29.87,North,0,0.0,0.0,64,0.00,,,0.00,WUHU216HW,2013-04-09 03:48:00,
2013-04-08 22:53:00,69.5,57.2,29.87,North,0,0.0,0.0,65,0.00,,,0.00,WUHU216HW,2013-04-09 03:53:00,
2013-04-08 22:58:00,69.5,56.8,29.87,North,0,0.0,0.0,64,0.00,,,0.00,WUHU216HW,2013-04-09 03:58:00,
2013-04-08 23:00:00,69.5,56.8,29.87,North,0,0.0,0.0,64,0.00,,,0.00,WUHU216HW,2013-04-09 04:00:00,
2013-04-08 23:05:00,69.5,57.2,29.87,North,0,0.0,0.0,65,0.00,,,0.00,WUHU216HW,2013-04-09 04:05:00,
2013-04-08 23:10:00,69.5,57.2,29.87,North,0,0.0,0.0,65,0.00,,,0.00,WUHU216HW,2013-04-09 04:10:00,
2013-04-08 23:15:00,69.7,57.3,29.87,North,0,0.0,0.0,65,0.00,,,0.00,WUHU216HW,2013-04-09 04:15:00,
2013-04-08 23:20:00,69.8,57.5,29.88,North,0,0.0,0.0,65,0.00,,,0.00,WUHU216HW,2013-04-09 04:20:00,
2013-04-08 23:25:00,69.8,57.5,29.88,North,0,0.0,0.0,65,0.00,,,0.00,WUHU216HW,2013-04-09 04:25:00,
2013-04-08 23:30:00,69.8,57.5,29.88,North,0,0.0,0.0,65,0.00,,,0.00,WUHU216HW,2013-04-09 04:30:00,
2013-04-08 23:35:00,69.8,57.5,29.88,North,0,0.0,0.0,65,0.00,,,0.00,WUHU216HW,2013-04-09 04:35:00,
2013-04-08 23:40:00,69.7,57.3,29.88,North,0,0.0,0.0,65,0.00,,,0.00,WUHU216HW,2013-04-09 04:40:00,
2013-04-08 23:45:00,69.7,57.3,29.88,North,0,0.0,0.0,65,0.00,,,0.00,WUHU216HW,2013-04-09 04:45:00,
2013-04-08 23:51:00,69.7,57.3,29.88,North,0,0.0,0.0,65,0.00,,,0.00,WUHU216HW,2013-04-09 04:51:00,
2013-04-08 23:56:00,69.5,57.2,29.88,North,0,0.0,0.0,65,0.00,,,0.00,WUHU216HW,2013-04-09 04:56:00,